createdAt,value
2018-12-16T00:01:35.540Z,1.10
2018-12-16T00:04:04.905Z,1.10
2018-12-16T00:06:34.173Z,1.10
2018-12-16T00:09:04.919Z,1.10
2018-12-16T00:11:33.993Z,1.10
2018-12-16T00:14:03.174Z,1.10
2018-12-16T00:16:32.342Z,1.10
2018-12-16T00:19:01.404Z,1.10
2018-12-16T00:21:30.686Z,1.10
2018-12-16T00:23:59.724Z,1.00
2018-12-16T00:26:40.667Z,1.00
2018-12-16T00:29:09.914Z,1.00
2018-12-16T00:31:42.456Z,1.00
2018-12-16T00:34:11.534Z,1.00
2018-12-16T00:36:40.749Z,1.00
2018-12-16T00:39:09.814Z,1.00
2018-12-16T00:41:38.854Z,0.90
2018-12-16T00:44:08.153Z,0.90
2018-12-16T00:46:37.293Z,0.90
2018-12-16T00:49:06.479Z,0.90
2018-12-16T00:51:35.537Z,0.80
2018-12-16T00:54:04.696Z,0.90
2018-12-16T00:56:33.903Z,0.90
2018-12-16T00:59:03.102Z,1.00
2018-12-16T01:01:32.565Z,1.00
2018-12-16T01:04:01.595Z,0.90
2018-12-16T01:06:30.825Z,1.00
2018-12-16T01:08:59.970Z,1.00
2018-12-16T01:11:29.291Z,1.10
2018-12-16T01:13:58.364Z,1.00
2018-12-16T01:16:27.401Z,1.10
2018-12-16T01:18:56.459Z,1.10
2018-12-16T01:21:26.283Z,1.10
2018-12-16T01:23:55.344Z,1.10
2018-12-16T01:26:24.633Z,1.10
2018-12-16T01:28:53.740Z,1.10
2018-12-16T01:31:23.754Z,1.10
2018-12-16T01:33:53.184Z,1.10
2018-12-16T01:36:23.028Z,1.10
2018-12-16T01:38:52.363Z,1.10
2018-12-16T01:41:21.436Z,1.10
2018-12-16T01:43:50.469Z,1.10
2018-12-16T01:46:19.744Z,1.10
2018-12-16T01:48:49.054Z,1.10
2018-12-16T01:51:18.150Z,1.20
2018-12-16T01:53:47.379Z,1.20
2018-12-16T01:56:16.413Z,1.20
2018-12-16T01:58:45.488Z,1.20
2018-12-16T02:01:14.624Z,1.20
2018-12-16T02:03:43.923Z,1.20
2018-12-16T02:06:12.992Z,1.20
2018-12-16T02:08:42.128Z,1.20
2018-12-16T02:11:11.212Z,1.10
2018-12-16T02:13:40.413Z,1.20
2018-12-16T02:16:09.454Z,1.20
2018-12-16T02:18:38.526Z,1.20
2018-12-16T02:21:07.845Z,1.20
2018-12-16T02:23:37.111Z,1.20
2018-12-16T02:26:06.159Z,1.20
2018-12-16T02:28:35.211Z,1.20
2018-12-16T02:31:04.334Z,1.20
2018-12-16T02:33:34.021Z,1.20
2018-12-16T02:36:03.090Z,1.20
2018-12-16T02:38:32.467Z,1.20
2018-12-16T02:41:01.502Z,1.30
2018-12-16T02:43:30.597Z,1.30
2018-12-16T02:45:59.747Z,1.30
2018-12-16T02:48:28.949Z,1.30
2018-12-16T02:50:58.105Z,1.30
2018-12-16T02:53:27.174Z,1.30
2018-12-16T02:55:56.792Z,1.30
2018-12-16T02:58:25.832Z,1.30
2018-12-16T03:00:55.640Z,1.30
2018-12-16T03:03:24.899Z,1.30
2018-12-16T03:05:54.100Z,1.40
2018-12-16T03:08:29.937Z,1.40
2018-12-16T03:10:58.965Z,1.40
2018-12-16T03:13:28.008Z,1.40
2018-12-16T03:15:57.376Z,1.50
2018-12-16T03:18:26.421Z,1.50
2018-12-16T03:20:55.557Z,1.50
2018-12-16T03:23:24.608Z,1.50
2018-12-16T03:25:53.740Z,1.50
2018-12-16T03:28:23.374Z,1.50
2018-12-16T03:30:53.087Z,1.50
2018-12-16T03:33:22.162Z,1.50
2018-12-16T03:35:51.218Z,1.40
2018-12-16T03:38:21.057Z,1.40
2018-12-16T03:40:50.098Z,1.40
2018-12-16T03:43:19.390Z,1.40
2018-12-16T03:45:49.005Z,1.50
2018-12-16T03:48:18.038Z,1.50
2018-12-16T03:50:47.122Z,1.50
2018-12-16T03:53:19.856Z,1.50
2018-12-16T03:55:47.368Z,1.50
2018-12-16T03:58:16.527Z,1.60
2018-12-16T04:00:45.593Z,1.60
2018-12-16T04:03:14.734Z,1.50
2018-12-16T04:05:44.429Z,1.50
2018-12-16T04:08:13.473Z,1.50
2018-12-16T04:10:42.716Z,1.50
2018-12-16T04:13:11.904Z,1.50
2018-12-16T04:15:41.032Z,1.60
2018-12-16T04:18:10.074Z,1.60
2018-12-16T04:20:39.959Z,1.60
2018-12-16T04:23:09.051Z,1.60
2018-12-16T04:25:38.087Z,1.70
2018-12-16T04:28:09.379Z,1.70
2018-12-16T04:30:38.676Z,1.70
2018-12-16T04:33:07.725Z,1.80
2018-12-16T04:35:36.776Z,1.80
2018-12-16T04:38:05.816Z,1.80
2018-12-16T04:40:34.953Z,1.80
2018-12-16T04:43:03.990Z,1.90
2018-12-16T04:45:33.761Z,1.90
2018-12-16T04:48:03.109Z,1.90
2018-12-16T04:50:32.283Z,2.00
2018-12-16T04:53:02.197Z,2.00
2018-12-16T04:55:31.319Z,2.00
2018-12-16T04:58:00.370Z,2.00
2018-12-16T05:00:29.452Z,2.00
2018-12-16T05:02:58.497Z,2.00
2018-12-16T05:05:27.553Z,2.00
2018-12-16T05:07:56.711Z,2.00
2018-12-16T05:10:28.930Z,2.00
2018-12-16T05:12:58.270Z,2.00
2018-12-16T05:15:27.423Z,2.00
2018-12-16T05:17:56.516Z,2.00
2018-12-16T05:20:25.649Z,2.00
2018-12-16T05:22:54.776Z,2.10
2018-12-16T05:25:24.333Z,2.00
2018-12-16T05:27:53.549Z,2.00
2018-12-16T05:30:22.894Z,2.00
2018-12-16T05:32:51.957Z,2.10
2018-12-16T05:35:21.012Z,2.10
2018-12-16T05:37:50.064Z,2.10
2018-12-16T05:40:19.098Z,2.10
2018-12-16T05:42:48.185Z,2.10
2018-12-16T05:45:17.397Z,2.10
2018-12-16T05:47:46.538Z,2.10
2018-12-16T05:50:16.512Z,2.10
2018-12-16T05:52:45.565Z,2.10
2018-12-16T05:55:14.613Z,2.10
2018-12-16T05:57:43.979Z,2.10
2018-12-16T06:00:13.131Z,2.10
2018-12-16T06:02:42.158Z,2.10
2018-12-16T06:05:11.275Z,2.10
2018-12-16T06:07:40.406Z,2.10
2018-12-16T06:10:09.916Z,2.10
2018-12-16T06:12:38.973Z,2.10
2018-12-16T06:15:08.350Z,2.10
2018-12-16T06:17:37.383Z,2.10
2018-12-16T06:20:06.622Z,2.10
2018-12-16T06:22:35.670Z,2.10
2018-12-16T06:25:05.105Z,2.10
2018-12-16T06:27:34.293Z,2.10
2018-12-16T06:30:04.046Z,2.20
2018-12-16T06:32:33.130Z,2.20
2018-12-16T06:35:02.181Z,2.20
2018-12-16T06:37:31.215Z,2.20
2018-12-16T06:40:00.555Z,2.20
2018-12-16T06:42:30.066Z,2.20
2018-12-16T06:44:59.200Z,2.30
2018-12-16T06:47:28.695Z,2.30
2018-12-16T06:49:57.928Z,2.30
2018-12-16T06:52:27.118Z,2.30
2018-12-16T06:54:56.358Z,2.30
2018-12-16T06:57:25.407Z,2.30
2018-12-16T06:59:54.644Z,2.30
2018-12-16T07:02:23.736Z,2.30
2018-12-16T07:04:52.991Z,2.30
2018-12-16T07:07:22.297Z,2.30
2018-12-16T07:09:51.367Z,2.30
2018-12-16T07:12:21.031Z,2.30
2018-12-16T07:14:50.133Z,2.60
2018-12-16T07:17:19.414Z,3.20
2018-12-16T07:19:48.719Z,3.30
2018-12-16T07:22:17.821Z,3.30
2018-12-16T07:24:47.846Z,3.10
2018-12-16T07:27:16.912Z,3.00
2018-12-16T07:29:46.144Z,2.90
2018-12-16T07:32:15.624Z,2.80
2018-12-16T07:34:44.913Z,2.70
2018-12-16T07:37:18.933Z,2.70
2018-12-16T07:39:46.258Z,2.70
2018-12-16T07:42:16.070Z,2.60
2018-12-16T07:44:45.132Z,2.60
2018-12-16T07:47:14.261Z,2.60
2018-12-16T07:49:46.376Z,2.70
2018-12-16T07:52:15.666Z,2.70
2018-12-16T07:55:03.049Z,2.70
2018-12-16T07:57:32.453Z,2.70
2018-12-16T08:00:01.543Z,2.70
2018-12-16T08:02:31.418Z,2.70
2018-12-16T08:05:00.632Z,2.80
2018-12-16T08:07:29.920Z,2.80
2018-12-16T08:09:59.197Z,2.90
2018-12-16T08:12:28.373Z,2.90
2018-12-16T08:14:57.432Z,2.90
2018-12-16T08:17:26.486Z,2.90
2018-12-16T08:19:55.690Z,3.00
2018-12-16T08:22:24.755Z,3.10
2018-12-16T08:24:53.940Z,3.10
2018-12-16T08:27:23.049Z,3.10
2018-12-16T08:29:52.602Z,3.10
2018-12-16T08:32:21.734Z,3.20
2018-12-16T08:34:51.101Z,3.20
2018-12-16T08:37:20.217Z,3.30
2018-12-16T08:39:49.709Z,3.30
2018-12-16T08:42:18.776Z,3.40
2018-12-16T08:44:48.210Z,3.30
2018-12-16T08:47:17.419Z,3.30
2018-12-16T08:49:46.628Z,3.30
2018-12-16T08:52:16.257Z,3.30
2018-12-16T08:54:45.954Z,3.30
2018-12-16T08:57:15.199Z,3.20
2018-12-16T08:59:44.714Z,3.20
2018-12-16T09:02:14.180Z,3.20
2018-12-16T09:04:43.705Z,3.10
2018-12-16T09:07:12.903Z,3.10
2018-12-16T09:09:42.438Z,3.10
2018-12-16T09:12:11.688Z,3.10
2018-12-16T09:14:41.161Z,3.30
2018-12-16T09:17:10.403Z,3.50
2018-12-16T09:19:39.790Z,3.60
2018-12-16T09:22:09.463Z,3.70
2018-12-16T09:24:38.689Z,3.70
2018-12-16T09:27:07.884Z,3.70
2018-12-16T09:29:37.316Z,3.70
2018-12-16T09:32:06.131Z,3.70
2018-12-16T09:34:35.231Z,3.70
2018-12-16T09:37:04.466Z,3.70
2018-12-16T09:39:33.808Z,3.80
2018-12-16T09:42:02.992Z,3.80
2018-12-16T09:44:32.069Z,3.80
2018-12-16T09:47:01.449Z,3.90
2018-12-16T09:49:30.612Z,3.90
2018-12-16T09:52:00.356Z,4.00
2018-12-16T09:54:29.497Z,4.20
2018-12-16T09:56:58.687Z,4.40
2018-12-16T09:59:27.829Z,4.50
2018-12-16T10:01:57.774Z,4.70
2018-12-16T10:04:26.894Z,4.70
2018-12-16T10:06:56.273Z,4.70
2018-12-16T10:09:25.392Z,4.50
2018-12-16T10:11:54.687Z,4.40
2018-12-16T10:14:23.769Z,4.30
2018-12-16T10:16:52.808Z,4.30
2018-12-16T10:19:21.995Z,4.30
2018-12-16T10:21:51.169Z,4.30
2018-12-16T10:24:20.298Z,4.30
2018-12-16T10:26:50.195Z,4.30
2018-12-16T10:29:19.248Z,4.30
2018-12-16T10:31:48.323Z,4.40
2018-12-16T10:34:17.543Z,4.50
2018-12-16T10:36:46.584Z,4.60
2018-12-16T10:39:15.771Z,4.70
2018-12-16T10:41:44.830Z,4.80
2018-12-16T10:44:13.865Z,4.90
2018-12-16T10:46:42.945Z,4.80
2018-12-16T10:49:12.176Z,4.80
2018-12-16T10:51:41.259Z,4.90
2018-12-16T10:54:13.218Z,4.90
2018-12-16T10:56:42.383Z,4.90
2018-12-16T10:59:11.476Z,5.00
2018-12-16T11:01:41.364Z,5.00
2018-12-16T11:04:10.996Z,5.20
2018-12-16T11:06:40.145Z,5.30
2018-12-16T11:09:09.355Z,5.40
2018-12-16T11:11:38.451Z,5.50
2018-12-16T11:14:07.623Z,5.40
2018-12-16T11:16:36.754Z,5.40
2018-12-16T11:19:05.990Z,5.30
2018-12-16T11:21:35.156Z,5.20
2018-12-16T11:24:04.560Z,5.10
2018-12-16T11:26:33.675Z,5.10
2018-12-16T11:29:02.757Z,5.10
2018-12-16T11:31:31.982Z,5.20
2018-12-16T11:34:01.461Z,5.20
2018-12-16T11:36:30.956Z,5.30
2018-12-16T11:39:00.016Z,5.30
2018-12-16T11:41:29.321Z,5.30
2018-12-16T11:43:58.576Z,5.30
2018-12-16T11:46:27.705Z,5.20
2018-12-16T11:48:56.962Z,5.20
2018-12-16T11:51:26.269Z,5.10
2018-12-16T11:53:55.379Z,5.20
2018-12-16T11:56:25.565Z,5.30
2018-12-16T11:58:54.851Z,5.40
2018-12-16T12:01:23.961Z,5.40
2018-12-16T12:03:53.250Z,5.50
2018-12-16T12:06:22.561Z,5.60
2018-12-16T12:08:51.723Z,5.60
2018-12-16T12:11:20.948Z,5.60
2018-12-16T12:13:50.394Z,5.60
2018-12-16T12:16:19.682Z,5.70
2018-12-16T12:19:00.695Z,5.80
2018-12-16T12:21:29.995Z,5.90
2018-12-16T12:23:59.099Z,6.00
2018-12-16T12:26:28.253Z,6.10
2018-12-16T12:28:57.925Z,6.20
2018-12-16T12:31:27.826Z,6.20
2018-12-16T12:33:56.910Z,6.10
2018-12-16T12:36:26.334Z,6.10
2018-12-16T12:38:55.498Z,6.00
2018-12-16T12:41:24.817Z,5.90
2018-12-16T12:43:53.909Z,5.90
2018-12-16T12:46:23.213Z,5.80
2018-12-16T12:48:52.326Z,5.80
2018-12-16T12:51:21.662Z,5.80
2018-12-16T12:53:50.755Z,5.80
2018-12-16T12:56:20.057Z,5.80
2018-12-16T12:58:49.391Z,5.70
2018-12-16T13:01:19.346Z,5.70
2018-12-16T13:03:48.640Z,5.70
2018-12-16T13:06:17.879Z,5.70
2018-12-16T13:08:47.001Z,5.70
2018-12-16T13:11:16.333Z,5.60
2018-12-16T13:13:45.497Z,5.50
2018-12-16T13:16:14.670Z,5.40
2018-12-16T13:18:43.775Z,5.40
2018-12-16T13:21:12.833Z,5.40
2018-12-16T13:23:41.919Z,5.40
2018-12-16T13:26:10.993Z,5.30
2018-12-16T13:28:40.085Z,5.30
2018-12-16T13:31:09.957Z,5.30
2018-12-16T13:33:39.033Z,5.40
2018-12-16T13:36:10.917Z,5.30
2018-12-16T13:38:40.307Z,5.30
2018-12-16T13:41:10.238Z,5.30
2018-12-16T13:43:39.475Z,5.30
2018-12-16T13:46:08.699Z,5.20
2018-12-16T13:48:37.847Z,5.20
2018-12-16T13:51:07.141Z,5.20
2018-12-16T13:53:36.239Z,5.20
2018-12-16T13:56:05.677Z,5.20
2018-12-16T13:58:35.804Z,5.20
2018-12-16T14:01:04.973Z,5.20
2018-12-16T14:03:34.068Z,5.20
2018-12-16T14:06:03.166Z,5.20
2018-12-16T14:08:32.301Z,5.20
2018-12-16T14:11:01.726Z,5.20
2018-12-16T14:13:30.838Z,5.20
2018-12-16T14:16:00.145Z,5.10
2018-12-16T14:18:29.332Z,5.10
2018-12-16T14:20:58.538Z,5.10
2018-12-16T14:23:27.726Z,5.10
2018-12-16T14:25:56.938Z,5.10
2018-12-16T14:28:26.642Z,5.10
2018-12-16T14:30:55.754Z,5.10
2018-12-16T14:33:24.928Z,5.10
2018-12-16T14:35:54.032Z,5.00
2018-12-16T14:38:23.816Z,5.00
2018-12-16T14:40:53.304Z,5.00
2018-12-16T14:43:22.902Z,5.00
2018-12-16T14:45:52.241Z,4.90
2018-12-16T14:48:21.564Z,4.90
2018-12-16T14:50:50.815Z,4.80
2018-12-16T14:53:19.957Z,4.80
2018-12-16T14:55:54.995Z,4.80
2018-12-16T14:58:20.188Z,4.80
2018-12-16T15:00:49.474Z,4.80
2018-12-16T15:03:18.562Z,4.80
2018-12-16T15:05:47.658Z,4.80
2018-12-16T15:08:16.847Z,4.70
2018-12-16T15:10:46.179Z,4.70
2018-12-16T15:13:15.513Z,4.70
2018-12-16T15:15:45.781Z,4.70
2018-12-16T15:18:15.024Z,4.70
2018-12-16T15:20:44.112Z,4.60
2018-12-16T15:23:13.257Z,4.60
2018-12-16T15:25:42.502Z,4.60
2018-12-16T15:28:11.709Z,4.60
2018-12-16T15:30:41.424Z,4.60
2018-12-16T15:33:10.584Z,4.60
2018-12-16T15:35:39.801Z,4.50
2018-12-16T15:38:08.905Z,4.50
2018-12-16T15:40:38.125Z,4.50
2018-12-16T15:43:07.365Z,4.50
2018-12-16T15:45:36.659Z,4.50
2018-12-16T15:48:05.732Z,4.40
2018-12-16T15:50:35.098Z,4.40
2018-12-16T15:53:04.199Z,4.40
2018-12-16T15:55:33.461Z,4.40
2018-12-16T15:58:02.654Z,4.40
2018-12-16T16:00:31.993Z,4.40
2018-12-16T16:03:01.394Z,4.40
2018-12-16T16:05:30.758Z,4.40
2018-12-16T16:07:59.924Z,4.40
2018-12-16T16:10:29.287Z,4.40
2018-12-16T16:12:58.459Z,4.40
2018-12-16T16:15:27.816Z,4.40
2018-12-16T16:17:56.907Z,4.40
2018-12-16T16:20:26.061Z,4.30
2018-12-16T16:22:55.561Z,4.30
2018-12-16T16:25:24.693Z,4.30
2018-12-16T16:27:53.756Z,4.30
2018-12-16T16:30:22.964Z,4.30
2018-12-16T16:32:52.107Z,4.30
2018-12-16T16:35:21.852Z,4.30
2018-12-16T16:37:50.951Z,4.30
2018-12-16T16:40:20.106Z,4.20
2018-12-16T16:42:49.418Z,4.20
2018-12-16T16:45:18.684Z,4.20
2018-12-16T16:47:47.828Z,4.20
2018-12-16T16:50:17.141Z,4.20
2018-12-16T16:52:46.373Z,4.30
2018-12-16T16:55:15.514Z,4.30
2018-12-16T16:57:45.369Z,4.30
2018-12-16T17:00:14.711Z,4.30
2018-12-16T17:02:44.059Z,4.30
2018-12-16T17:05:13.485Z,4.30
2018-12-16T17:07:44.139Z,4.30
2018-12-16T17:10:13.436Z,4.30
2018-12-16T17:12:42.712Z,4.20
2018-12-16T17:15:11.906Z,4.20
2018-12-16T17:17:41.192Z,4.30
2018-12-16T17:20:10.383Z,4.30
2018-12-16T17:22:39.471Z,4.30
2018-12-16T17:25:08.860Z,4.20
2018-12-16T17:27:37.939Z,4.20
2018-12-16T17:30:09.199Z,4.10
2018-12-16T17:32:38.449Z,4.10
2018-12-16T17:35:07.865Z,4.10
2018-12-16T17:37:37.170Z,4.10
2018-12-16T17:40:06.759Z,4.10
2018-12-16T17:42:35.843Z,4.10
2018-12-16T17:45:05.776Z,4.10
2018-12-16T17:47:35.191Z,4.10
2018-12-16T17:50:04.882Z,4.10
2018-12-16T17:52:34.087Z,4.10
2018-12-16T17:55:03.442Z,4.10
2018-12-16T17:57:32.656Z,4.20
2018-12-16T18:00:01.763Z,4.20
2018-12-16T18:02:31.058Z,4.10
2018-12-16T18:05:00.200Z,4.10
2018-12-16T18:07:29.316Z,4.10
2018-12-16T18:09:58.377Z,4.10
2018-12-16T18:12:27.502Z,4.00
2018-12-16T18:14:56.638Z,4.00
2018-12-16T18:17:25.982Z,4.00
2018-12-16T18:19:55.356Z,4.00
2018-12-16T18:22:24.444Z,4.00
2018-12-16T18:24:53.799Z,4.00
2018-12-16T18:27:22.867Z,4.10
2018-12-16T18:29:51.944Z,4.10
2018-12-16T18:32:21.036Z,4.10
2018-12-16T18:34:50.112Z,4.10
2018-12-16T18:37:19.186Z,4.00
2018-12-16T18:39:48.478Z,4.00
2018-12-16T18:42:17.602Z,4.10
2018-12-16T18:44:46.955Z,4.10
2018-12-16T18:47:16.028Z,4.10
2018-12-16T18:49:45.893Z,4.10
2018-12-16T18:52:14.998Z,4.10
2018-12-16T18:54:44.165Z,4.10
2018-12-16T18:57:13.271Z,4.10
2018-12-16T18:59:42.729Z,4.10
2018-12-16T19:02:12.157Z,4.10
2018-12-16T19:04:41.185Z,4.10
2018-12-16T19:07:10.379Z,4.10
2018-12-16T19:09:40.146Z,4.10
2018-12-16T19:12:09.444Z,4.10
2018-12-16T19:14:38.923Z,4.10
2018-12-16T19:17:08.101Z,4.10
2018-12-16T19:19:37.362Z,4.00
2018-12-16T19:22:06.508Z,4.00
2018-12-16T19:24:35.592Z,4.00
2018-12-16T19:27:04.694Z,4.00
2018-12-16T19:29:33.855Z,4.00
2018-12-16T19:32:02.924Z,3.90
2018-12-16T19:34:32.061Z,3.90
2018-12-16T19:37:01.212Z,3.90
2018-12-16T19:39:31.092Z,3.90
2018-12-16T19:42:00.326Z,3.90
2018-12-16T19:44:29.511Z,3.90
2018-12-16T19:46:58.637Z,3.90
2018-12-16T19:49:27.695Z,3.90
2018-12-16T19:51:56.943Z,3.90
2018-12-16T19:54:26.418Z,3.80
2018-12-16T19:56:55.998Z,3.80
2018-12-16T19:59:25.241Z,3.90
2018-12-16T20:01:54.307Z,3.90
2018-12-16T20:04:25.411Z,3.90
2018-12-16T20:06:54.578Z,3.90
2018-12-16T20:09:23.684Z,3.90
2018-12-16T20:11:52.937Z,3.80
2018-12-16T20:14:22.149Z,3.80
2018-12-16T20:16:52.003Z,3.80
2018-12-16T20:19:21.132Z,3.80
2018-12-16T20:21:50.898Z,3.80
2018-12-16T20:24:19.979Z,3.80
2018-12-16T20:26:49.299Z,3.80
2018-12-16T20:29:18.581Z,3.80
2018-12-16T20:31:47.739Z,3.90
2018-12-16T20:34:17.031Z,3.90
2018-12-16T20:36:46.411Z,3.90
2018-12-16T20:39:15.828Z,3.90
2018-12-16T20:41:44.908Z,3.90
2018-12-16T20:44:14.384Z,3.90
2018-12-16T20:46:44.377Z,4.00
2018-12-16T20:49:14.142Z,4.00
2018-12-16T20:51:43.232Z,4.00
2018-12-16T20:54:12.451Z,4.00
2018-12-16T20:56:41.515Z,4.10
2018-12-16T20:59:11.046Z,4.10
2018-12-16T21:01:40.434Z,4.20
2018-12-16T21:04:09.514Z,4.20
2018-12-16T21:06:38.684Z,4.20
2018-12-16T21:09:08.857Z,4.20
2018-12-16T21:11:43.131Z,4.30
2018-12-16T21:14:17.629Z,4.30
2018-12-16T21:16:52.077Z,4.40
2018-12-16T21:19:21.501Z,4.40
2018-12-16T21:21:50.595Z,4.40
2018-12-16T21:24:20.090Z,4.50
2018-12-16T21:26:50.114Z,4.50
2018-12-16T21:29:19.213Z,4.50
2018-12-16T21:31:48.393Z,4.50
2018-12-16T21:34:17.450Z,4.50
2018-12-16T21:36:46.591Z,4.60
2018-12-16T21:39:15.864Z,4.60
2018-12-16T21:41:45.317Z,4.60
2018-12-16T21:44:14.393Z,4.60
2018-12-16T21:46:44.539Z,4.60
2018-12-16T21:49:13.698Z,4.70
2018-12-16T21:51:42.749Z,4.70
2018-12-16T21:54:11.817Z,4.70
2018-12-16T21:56:41.224Z,4.70
2018-12-16T21:59:10.369Z,4.60
2018-12-16T22:01:40.190Z,4.60
2018-12-16T22:04:09.250Z,4.50
2018-12-16T22:06:38.376Z,4.50
2018-12-16T22:09:08.474Z,4.30
2018-12-16T22:11:38.235Z,4.20
2018-12-16T22:14:07.962Z,4.10
2018-12-16T22:16:37.073Z,4.00
2018-12-16T22:19:06.127Z,3.90
2018-12-16T22:21:35.185Z,3.90
2018-12-16T22:24:04.515Z,3.80
2018-12-16T22:26:34.189Z,3.80
2018-12-16T22:29:03.275Z,3.80
2018-12-16T22:31:32.478Z,3.90
2018-12-16T22:34:02.123Z,3.90
2018-12-16T22:36:31.256Z,4.00
2018-12-16T22:39:00.314Z,4.00
2018-12-16T22:41:29.505Z,4.10
2018-12-16T22:43:58.671Z,4.10
2018-12-16T22:46:28.172Z,4.00
2018-12-16T22:48:57.344Z,4.00
2018-12-16T22:51:26.760Z,3.90
2018-12-16T22:53:56.278Z,3.90
2018-12-16T22:56:25.759Z,3.80
2018-12-16T22:58:54.964Z,3.80
2018-12-16T23:01:24.351Z,3.80
2018-12-16T23:03:53.446Z,3.70
2018-12-16T23:06:22.769Z,3.70
2018-12-16T23:08:51.827Z,3.70
2018-12-16T23:11:20.921Z,3.60
2018-12-16T23:13:49.995Z,3.60
2018-12-16T23:16:19.686Z,3.60
2018-12-16T23:18:48.902Z,3.50
2018-12-16T23:21:17.963Z,3.50
2018-12-16T23:23:47.132Z,3.50
2018-12-16T23:26:17.906Z,3.50
2018-12-16T23:28:47.166Z,3.50
2018-12-16T23:31:16.263Z,3.50
2018-12-16T23:33:45.633Z,3.40
2018-12-16T23:36:14.988Z,3.50
2018-12-16T23:38:44.118Z,3.50
2018-12-16T23:41:13.715Z,3.50
2018-12-16T23:43:43.876Z,3.50
2018-12-16T23:46:13.771Z,3.60
2018-12-16T23:48:43.152Z,3.60
2018-12-16T23:51:12.265Z,3.70
2018-12-16T23:53:41.738Z,3.70
2018-12-16T23:56:11.123Z,3.80
2018-12-16T23:58:40.307Z,3.90
